sensor_id;sensor_type;location;lat;lon;timestamp;temperature;humidity
60868;DHT22;46702;48.370;10.794;2022-08-19T00:00:24;18.90;99.90
60868;DHT22;46702;48.370;10.794;2022-08-19T00:02:50;18.90;99.90
60868;DHT22;46702;48.370;10.794;2022-08-19T00:05:16;18.90;99.90
60868;DHT22;46702;48.370;10.794;2022-08-19T00:07:43;18.90;99.90
60868;DHT22;46702;48.370;10.794;2022-08-19T00:10:10;18.90;99.90
60868;DHT22;46702;48.370;10.794;2022-08-19T00:12:36;18.90;99.90
60868;DHT22;46702;48.370;10.794;2022-08-19T00:15:05;18.90;99.90
60868;DHT22;46702;48.370;10.794;2022-08-19T00:17:31;18.80;99.90
60868;DHT22;46702;48.370;10.794;2022-08-19T00:19:57;18.80;99.90
60868;DHT22;46702;48.370;10.794;2022-08-19T00:22:23;18.80;99.90
60868;DHT22;46702;48.370;10.794;2022-08-19T00:24:48;18.70;99.90
60868;DHT22;46702;48.370;10.794;2022-08-19T00:27:14;18.60;99.90
60868;DHT22;46702;48.370;10.794;2022-08-19T00:29:40;18.60;99.90
60868;DHT22;46702;48.370;10.794;2022-08-19T00:32:06;18.70;99.90
60868;DHT22;46702;48.370;10.794;2022-08-19T00:34:32;18.80;99.90
60868;DHT22;46702;48.370;10.794;2022-08-19T00:36:58;18.60;99.90
60868;DHT22;46702;48.370;10.794;2022-08-19T00:39:24;18.60;99.90
60868;DHT22;46702;48.370;10.794;2022-08-19T00:41:50;18.60;99.90
60868;DHT22;46702;48.370;10.794;2022-08-19T00:44:25;18.70;99.90
60868;DHT22;46702;48.370;10.794;2022-08-19T00:46:52;18.70;99.90
60868;DHT22;46702;48.370;10.794;2022-08-19T00:49:20;18.80;99.90
60868;DHT22;46702;48.370;10.794;2022-08-19T00:51:55;18.80;99.90
60868;DHT22;46702;48.370;10.794;2022-08-19T00:54:22;18.80;99.90
60868;DHT22;46702;48.370;10.794;2022-08-19T00:56:49;18.90;99.90
60868;DHT22;46702;48.370;10.794;2022-08-19T00:59:16;18.90;99.90
60868;DHT22;46702;48.370;10.794;2022-08-19T01:01:43;18.90;99.90
60868;DHT22;46702;48.370;10.794;2022-08-19T01:04:09;19.00;99.90
60868;DHT22;46702;48.370;10.794;2022-08-19T01:06:38;19.00;99.90
60868;DHT22;46702;48.370;10.794;2022-08-19T01:09:06;19.00;99.90
60868;DHT22;46702;48.370;10.794;2022-08-19T01:11:36;19.00;99.90
60868;DHT22;46702;48.370;10.794;2022-08-19T01:14:05;19.00;99.90
60868;DHT22;46702;48.370;10.794;2022-08-19T01:16:33;19.00;99.90
60868;DHT22;46702;48.370;10.794;2022-08-19T01:18:59;18.90;99.90
60868;DHT22;46702;48.370;10.794;2022-08-19T01:21:44;18.80;99.90
60868;DHT22;46702;48.370;10.794;2022-08-19T01:24:11;18.90;99.90
60868;DHT22;46702;48.370;10.794;2022-08-19T01:26:42;18.80;99.90
60868;DHT22;46702;48.370;10.794;2022-08-19T01:29:09;18.80;99.90
60868;DHT22;46702;48.370;10.794;2022-08-19T01:31:36;18.90;99.90
60868;DHT22;46702;48.370;10.794;2022-08-19T01:34:02;18.90;99.90
60868;DHT22;46702;48.370;10.794;2022-08-19T01:38:59;18.90;99.90
60868;DHT22;46702;48.370;10.794;2022-08-19T01:41:26;18.80;99.90
60868;DHT22;46702;48.370;10.794;2022-08-19T01:43:53;18.70;99.90
60868;DHT22;46702;48.370;10.794;2022-08-19T01:46:19;18.70;99.90
60868;DHT22;46702;48.370;10.794;2022-08-19T01:48:45;18.70;99.90
60868;DHT22;46702;48.370;10.794;2022-08-19T01:51:12;18.80;99.90
60868;DHT22;46702;48.370;10.794;2022-08-19T01:53:39;18.80;99.90
60868;DHT22;46702;48.370;10.794;2022-08-19T01:56:05;18.80;99.90
60868;DHT22;46702;48.370;10.794;2022-08-19T01:58:38;18.80;99.90
60868;DHT22;46702;48.370;10.794;2022-08-19T02:01:07;18.60;99.90
60868;DHT22;46702;48.370;10.794;2022-08-19T02:03:33;18.50;99.90
60868;DHT22;46702;48.370;10.794;2022-08-19T02:06:03;18.50;99.90
60868;DHT22;46702;48.370;10.794;2022-08-19T02:08:31;18.60;99.90
60868;DHT22;46702;48.370;10.794;2022-08-19T02:10:57;18.60;99.90
60868;DHT22;46702;48.370;10.794;2022-08-19T02:13:24;18.60;99.90
60868;DHT22;46702;48.370;10.794;2022-08-19T02:15:50;18.60;99.90
60868;DHT22;46702;48.370;10.794;2022-08-19T02:18:16;18.70;99.90
60868;DHT22;46702;48.370;10.794;2022-08-19T02:20:42;18.60;99.90
60868;DHT22;46702;48.370;10.794;2022-08-19T02:23:09;18.60;99.90
60868;DHT22;46702;48.370;10.794;2022-08-19T02:25:36;18.60;99.90
60868;DHT22;46702;48.370;10.794;2022-08-19T02:28:01;18.60;99.90
60868;DHT22;46702;48.370;10.794;2022-08-19T02:30:27;18.60;99.90
60868;DHT22;46702;48.370;10.794;2022-08-19T02:32:53;18.60;99.90
60868;DHT22;46702;48.370;10.794;2022-08-19T02:35:19;18.50;99.90
60868;DHT22;46702;48.370;10.794;2022-08-19T02:37:45;18.40;99.90
60868;DHT22;46702;48.370;10.794;2022-08-19T02:40:31;18.50;99.90
60868;DHT22;46702;48.370;10.794;2022-08-19T02:43:01;18.50;99.90
60868;DHT22;46702;48.370;10.794;2022-08-19T02:45:31;18.50;99.90
60868;DHT22;46702;48.370;10.794;2022-08-19T02:47:56;18.40;99.90
60868;DHT22;46702;48.370;10.794;2022-08-19T02:50:22;18.50;99.90
60868;DHT22;46702;48.370;10.794;2022-08-19T02:52:48;18.50;99.90
60868;DHT22;46702;48.370;10.794;2022-08-19T02:55:13;18.50;99.90
60868;DHT22;46702;48.370;10.794;2022-08-19T02:57:40;18.40;99.90
60868;DHT22;46702;48.370;10.794;2022-08-19T03:00:08;18.40;99.90
60868;DHT22;46702;48.370;10.794;2022-08-19T03:02:37;18.30;99.90
60868;DHT22;46702;48.370;10.794;2022-08-19T03:05:04;18.30;99.90
60868;DHT22;46702;48.370;10.794;2022-08-19T03:07:31;18.20;99.90
60868;DHT22;46702;48.370;10.794;2022-08-19T03:09:56;18.30;99.90
60868;DHT22;46702;48.370;10.794;2022-08-19T03:12:22;18.30;99.90
60868;DHT22;46702;48.370;10.794;2022-08-19T03:14:48;18.40;99.90
60868;DHT22;46702;48.370;10.794;2022-08-19T03:17:13;18.40;99.90
60868;DHT22;46702;48.370;10.794;2022-08-19T03:19:39;18.50;99.90
60868;DHT22;46702;48.370;10.794;2022-08-19T03:22:05;18.50;99.90
60868;DHT22;46702;48.370;10.794;2022-08-19T03:24:31;18.50;99.90
60868;DHT22;46702;48.370;10.794;2022-08-19T03:26:57;18.50;99.90
60868;DHT22;46702;48.370;10.794;2022-08-19T03:29:26;18.50;99.90
60868;DHT22;46702;48.370;10.794;2022-08-19T03:31:52;18.40;99.90
60868;DHT22;46702;48.370;10.794;2022-08-19T03:34:26;18.40;99.90
60868;DHT22;46702;48.370;10.794;2022-08-19T03:36:55;18.40;99.90
60868;DHT22;46702;48.370;10.794;2022-08-19T03:39:21;18.40;99.90
60868;DHT22;46702;48.370;10.794;2022-08-19T03:41:51;18.40;99.90
60868;DHT22;46702;48.370;10.794;2022-08-19T03:44:19;18.50;99.90
60868;DHT22;46702;48.370;10.794;2022-08-19T03:46:53;18.50;99.90
60868;DHT22;46702;48.370;10.794;2022-08-19T03:49:21;18.50;99.90
60868;DHT22;46702;48.370;10.794;2022-08-19T03:51:48;18.50;99.90
60868;DHT22;46702;48.370;10.794;2022-08-19T03:54:17;18.50;99.90
60868;DHT22;46702;48.370;10.794;2022-08-19T03:56:45;18.50;99.90
60868;DHT22;46702;48.370;10.794;2022-08-19T03:59:15;18.40;99.90
60868;DHT22;46702;48.370;10.794;2022-08-19T04:01:42;18.40;99.90
60868;DHT22;46702;48.370;10.794;2022-08-19T04:04:08;18.40;99.90
60868;DHT22;46702;48.370;10.794;2022-08-19T04:06:36;18.40;99.90
60868;DHT22;46702;48.370;10.794;2022-08-19T04:09:05;18.50;99.90
60868;DHT22;46702;48.370;10.794;2022-08-19T04:11:37;18.40;99.90
60868;DHT22;46702;48.370;10.794;2022-08-19T04:14:07;18.50;99.90
60868;DHT22;46702;48.370;10.794;2022-08-19T04:16:34;18.50;99.90
60868;DHT22;46702;48.370;10.794;2022-08-19T04:19:01;18.60;99.90
60868;DHT22;46702;48.370;10.794;2022-08-19T04:21:28;18.60;99.90
60868;DHT22;46702;48.370;10.794;2022-08-19T04:23:55;18.60;99.90
60868;DHT22;46702;48.370;10.794;2022-08-19T04:26:30;18.60;99.90
60868;DHT22;46702;48.370;10.794;2022-08-19T04:29:01;18.60;99.90
60868;DHT22;46702;48.370;10.794;2022-08-19T04:31:29;18.70;99.90
60868;DHT22;46702;48.370;10.794;2022-08-19T04:33:56;18.70;99.90
60868;DHT22;46702;48.370;10.794;2022-08-19T04:36:32;18.70;99.90
60868;DHT22;46702;48.370;10.794;2022-08-19T04:39:01;18.70;99.90
60868;DHT22;46702;48.370;10.794;2022-08-19T04:41:28;18.60;99.90
60868;DHT22;46702;48.370;10.794;2022-08-19T04:44:13;18.60;99.90
60868;DHT22;46702;48.370;10.794;2022-08-19T04:46:39;18.40;99.90
60868;DHT22;46702;48.370;10.794;2022-08-19T04:49:06;18.50;99.90
60868;DHT22;46702;48.370;10.794;2022-08-19T04:51:33;18.50;99.90
60868;DHT22;46702;48.370;10.794;2022-08-19T04:54:02;18.50;99.90
60868;DHT22;46702;48.370;10.794;2022-08-19T04:56:28;18.50;99.90
60868;DHT22;46702;48.370;10.794;2022-08-19T04:58:55;18.40;99.90
60868;DHT22;46702;48.370;10.794;2022-08-19T05:01:26;18.30;99.90
60868;DHT22;46702;48.370;10.794;2022-08-19T05:03:54;18.30;99.90
60868;DHT22;46702;48.370;10.794;2022-08-19T05:06:21;18.30;99.90
60868;DHT22;46702;48.370;10.794;2022-08-19T05:08:47;18.30;99.90
60868;DHT22;46702;48.370;10.794;2022-08-19T05:11:18;18.30;99.90
60868;DHT22;46702;48.370;10.794;2022-08-19T05:13:46;18.30;99.90
60868;DHT22;46702;48.370;10.794;2022-08-19T05:16:15;18.30;99.90
60868;DHT22;46702;48.370;10.794;2022-08-19T05:18:41;18.30;99.90
60868;DHT22;46702;48.370;10.794;2022-08-19T05:21:26;18.40;99.90
60868;DHT22;46702;48.370;10.794;2022-08-19T05:24:11;18.50;99.90
60868;DHT22;46702;48.370;10.794;2022-08-19T05:26:41;18.40;99.90
60868;DHT22;46702;48.370;10.794;2022-08-19T05:29:07;18.50;99.90
60868;DHT22;46702;48.370;10.794;2022-08-19T05:31:34;18.40;99.90
60868;DHT22;46702;48.370;10.794;2022-08-19T05:34:00;18.30;99.90
60868;DHT22;46702;48.370;10.794;2022-08-19T05:36:27;18.40;99.90
60868;DHT22;46702;48.370;10.794;2022-08-19T05:38:53;18.40;99.90
60868;DHT22;46702;48.370;10.794;2022-08-19T05:41:20;18.50;99.90
60868;DHT22;46702;48.370;10.794;2022-08-19T05:43:46;18.50;99.90
60868;DHT22;46702;48.370;10.794;2022-08-19T05:46:17;18.50;99.90
60868;DHT22;46702;48.370;10.794;2022-08-19T05:48:44;18.50;99.90
60868;DHT22;46702;48.370;10.794;2022-08-19T05:51:10;18.60;99.90
60868;DHT22;46702;48.370;10.794;2022-08-19T05:53:36;18.60;99.90
60868;DHT22;46702;48.370;10.794;2022-08-19T05:56:10;18.50;99.90
60868;DHT22;46702;48.370;10.794;2022-08-19T05:58:37;18.40;99.90
60868;DHT22;46702;48.370;10.794;2022-08-19T06:01:04;18.40;99.90
60868;DHT22;46702;48.370;10.794;2022-08-19T06:03:35;18.40;99.90
60868;DHT22;46702;48.370;10.794;2022-08-19T06:06:07;18.40;99.90
60868;DHT22;46702;48.370;10.794;2022-08-19T06:08:34;18.50;99.90
60868;DHT22;46702;48.370;10.794;2022-08-19T06:11:21;18.40;99.90
60868;DHT22;46702;48.370;10.794;2022-08-19T06:13:50;18.40;99.90
60868;DHT22;46702;48.370;10.794;2022-08-19T06:16:21;18.50;99.90
60868;DHT22;46702;48.370;10.794;2022-08-19T06:18:52;18.60;99.90
60868;DHT22;46702;48.370;10.794;2022-08-19T06:21:20;18.60;99.90
60868;DHT22;46702;48.370;10.794;2022-08-19T06:23:46;18.60;99.90
60868;DHT22;46702;48.370;10.794;2022-08-19T06:26:14;18.60;99.90
60868;DHT22;46702;48.370;10.794;2022-08-19T06:28:40;18.60;99.90
60868;DHT22;46702;48.370;10.794;2022-08-19T06:31:20;18.50;99.90
60868;DHT22;46702;48.370;10.794;2022-08-19T06:33:47;18.50;99.90
60868;DHT22;46702;48.370;10.794;2022-08-19T06:36:28;18.60;99.90
60868;DHT22;46702;48.370;10.794;2022-08-19T06:38:58;18.60;99.90
60868;DHT22;46702;48.370;10.794;2022-08-19T06:41:27;18.60;99.90
60868;DHT22;46702;48.370;10.794;2022-08-19T06:43:54;18.70;99.90
60868;DHT22;46702;48.370;10.794;2022-08-19T06:46:20;18.60;99.90
60868;DHT22;46702;48.370;10.794;2022-08-19T06:48:47;18.60;99.90
60868;DHT22;46702;48.370;10.794;2022-08-19T06:51:15;18.60;99.90
60868;DHT22;46702;48.370;10.794;2022-08-19T06:53:42;18.70;99.90
60868;DHT22;46702;48.370;10.794;2022-08-19T06:56:15;18.70;99.90
60868;DHT22;46702;48.370;10.794;2022-08-19T06:58:58;18.70;99.90
60868;DHT22;46702;48.370;10.794;2022-08-19T07:01:24;18.70;99.90
60868;DHT22;46702;48.370;10.794;2022-08-19T07:03:50;18.50;99.90
60868;DHT22;46702;48.370;10.794;2022-08-19T07:06:18;18.40;99.90
60868;DHT22;46702;48.370;10.794;2022-08-19T07:08:47;18.40;99.90
60868;DHT22;46702;48.370;10.794;2022-08-19T07:11:15;18.40;99.90
60868;DHT22;46702;48.370;10.794;2022-08-19T07:13:43;18.50;99.90
60868;DHT22;46702;48.370;10.794;2022-08-19T07:16:13;18.60;99.90
60868;DHT22;46702;48.370;10.794;2022-08-19T07:18:40;18.60;99.90
60868;DHT22;46702;48.370;10.794;2022-08-19T07:21:18;18.60;99.90
60868;DHT22;46702;48.370;10.794;2022-08-19T07:23:45;18.60;99.90
60868;DHT22;46702;48.370;10.794;2022-08-19T07:26:37;18.70;99.90
60868;DHT22;46702;48.370;10.794;2022-08-19T07:29:05;18.70;99.90
60868;DHT22;46702;48.370;10.794;2022-08-19T07:31:31;18.70;99.90
60868;DHT22;46702;48.370;10.794;2022-08-19T07:34:02;18.70;99.90
60868;DHT22;46702;48.370;10.794;2022-08-19T07:36:28;18.70;99.90
60868;DHT22;46702;48.370;10.794;2022-08-19T07:38:56;18.70;99.90
60868;DHT22;46702;48.370;10.794;2022-08-19T07:41:25;18.70;99.90
60868;DHT22;46702;48.370;10.794;2022-08-19T07:43:52;18.70;99.90
60868;DHT22;46702;48.370;10.794;2022-08-19T07:46:18;18.70;99.90
60868;DHT22;46702;48.370;10.794;2022-08-19T07:48:47;18.70;99.90
60868;DHT22;46702;48.370;10.794;2022-08-19T07:51:17;18.60;99.90
60868;DHT22;46702;48.370;10.794;2022-08-19T07:53:43;18.60;99.90
60868;DHT22;46702;48.370;10.794;2022-08-19T07:56:11;18.60;99.90
60868;DHT22;46702;48.370;10.794;2022-08-19T07:58:40;18.60;99.90
60868;DHT22;46702;48.370;10.794;2022-08-19T08:01:09;18.60;99.90
60868;DHT22;46702;48.370;10.794;2022-08-19T08:03:36;18.60;99.90
60868;DHT22;46702;48.370;10.794;2022-08-19T08:06:22;18.50;99.90
60868;DHT22;46702;48.370;10.794;2022-08-19T08:09:07;18.60;99.90
60868;DHT22;46702;48.370;10.794;2022-08-19T08:14:03;18.40;99.90
60868;DHT22;46702;48.370;10.794;2022-08-19T08:16:35;18.40;99.90
60868;DHT22;46702;48.370;10.794;2022-08-19T08:19:00;18.40;99.90
60868;DHT22;46702;48.370;10.794;2022-08-19T08:21:26;18.40;99.90
60868;DHT22;46702;48.370;10.794;2022-08-19T08:23:52;18.40;99.90
60868;DHT22;46702;48.370;10.794;2022-08-19T08:26:20;18.40;99.90
60868;DHT22;46702;48.370;10.794;2022-08-19T08:28:46;18.40;99.90
60868;DHT22;46702;48.370;10.794;2022-08-19T08:31:13;18.40;99.90
60868;DHT22;46702;48.370;10.794;2022-08-19T08:33:40;18.40;99.90
60868;DHT22;46702;48.370;10.794;2022-08-19T08:36:08;18.50;99.90
60868;DHT22;46702;48.370;10.794;2022-08-19T08:38:34;18.50;99.90
60868;DHT22;46702;48.370;10.794;2022-08-19T08:41:09;18.50;99.90
60868;DHT22;46702;48.370;10.794;2022-08-19T08:43:38;18.50;99.90
60868;DHT22;46702;48.370;10.794;2022-08-19T08:46:10;18.50;99.90
60868;DHT22;46702;48.370;10.794;2022-08-19T08:48:56;18.50;99.90
60868;DHT22;46702;48.370;10.794;2022-08-19T08:51:34;18.50;99.90
60868;DHT22;46702;48.370;10.794;2022-08-19T08:54:02;18.50;99.90
60868;DHT22;46702;48.370;10.794;2022-08-19T08:56:29;18.50;99.90
60868;DHT22;46702;48.370;10.794;2022-08-19T08:59:06;18.60;99.90
60868;DHT22;46702;48.370;10.794;2022-08-19T09:01:34;18.60;99.90
60868;DHT22;46702;48.370;10.794;2022-08-19T09:04:02;18.60;99.90
60868;DHT22;46702;48.370;10.794;2022-08-19T09:09:34;18.60;99.90
60868;DHT22;46702;48.370;10.794;2022-08-19T09:15:22;18.60;99.90
60868;DHT22;46702;48.370;10.794;2022-08-19T09:17:29;18.60;99.90
60868;DHT22;46702;48.370;10.794;2022-08-19T09:20:16;18.60;99.90
60868;DHT22;46702;48.370;10.794;2022-08-19T09:22:43;18.60;99.90
60868;DHT22;46702;48.370;10.794;2022-08-19T09:25:11;18.60;99.90
60868;DHT22;46702;48.370;10.794;2022-08-19T09:27:39;18.60;99.90
60868;DHT22;46702;48.370;10.794;2022-08-19T09:30:06;18.50;99.90
60868;DHT22;46702;48.370;10.794;2022-08-19T09:32:34;18.50;99.90
60868;DHT22;46702;48.370;10.794;2022-08-19T09:35:00;18.50;99.90
60868;DHT22;46702;48.370;10.794;2022-08-19T09:37:27;18.40;99.90
60868;DHT22;46702;48.370;10.794;2022-08-19T09:39:53;18.40;99.90
60868;DHT22;46702;48.370;10.794;2022-08-19T09:42:19;18.40;99.90
60868;DHT22;46702;48.370;10.794;2022-08-19T09:44:46;18.40;99.90
60868;DHT22;46702;48.370;10.794;2022-08-19T09:47:13;18.40;99.90
60868;DHT22;46702;48.370;10.794;2022-08-19T09:49:39;18.40;99.90
60868;DHT22;46702;48.370;10.794;2022-08-19T09:52:08;18.40;99.90
60868;DHT22;46702;48.370;10.794;2022-08-19T09:54:34;18.40;99.90
60868;DHT22;46702;48.370;10.794;2022-08-19T09:57:01;18.40;99.90
60868;DHT22;46702;48.370;10.794;2022-08-19T09:59:27;18.30;99.90
60868;DHT22;46702;48.370;10.794;2022-08-19T10:01:53;18.30;99.90
60868;DHT22;46702;48.370;10.794;2022-08-19T10:04:19;18.30;99.90
60868;DHT22;46702;48.370;10.794;2022-08-19T10:06:48;18.30;99.90
60868;DHT22;46702;48.370;10.794;2022-08-19T10:09:15;18.30;99.90
60868;DHT22;46702;48.370;10.794;2022-08-19T10:11:43;18.30;99.90
60868;DHT22;46702;48.370;10.794;2022-08-19T10:14:11;18.30;99.90
60868;DHT22;46702;48.370;10.794;2022-08-19T10:16:40;18.30;99.90
60868;DHT22;46702;48.370;10.794;2022-08-19T10:19:07;18.30;99.90
60868;DHT22;46702;48.370;10.794;2022-08-19T10:21:34;18.30;99.90
60868;DHT22;46702;48.370;10.794;2022-08-19T10:24:02;18.20;99.90
60868;DHT22;46702;48.370;10.794;2022-08-19T10:26:32;18.20;99.90
60868;DHT22;46702;48.370;10.794;2022-08-19T10:28:59;18.20;99.90
60868;DHT22;46702;48.370;10.794;2022-08-19T10:31:28;18.20;99.90
60868;DHT22;46702;48.370;10.794;2022-08-19T10:33:54;18.10;99.90
60868;DHT22;46702;48.370;10.794;2022-08-19T10:36:25;18.10;99.90
60868;DHT22;46702;48.370;10.794;2022-08-19T10:38:53;18.20;99.90
60868;DHT22;46702;48.370;10.794;2022-08-19T10:41:25;18.20;99.90
60868;DHT22;46702;48.370;10.794;2022-08-19T10:43:53;18.20;99.90
60868;DHT22;46702;48.370;10.794;2022-08-19T10:46:20;18.10;99.90
60868;DHT22;46702;48.370;10.794;2022-08-19T10:48:47;18.10;99.90
60868;DHT22;46702;48.370;10.794;2022-08-19T10:51:12;18.10;99.90
60868;DHT22;46702;48.370;10.794;2022-08-19T10:54:02;18.10;99.90
60868;DHT22;46702;48.370;10.794;2022-08-19T10:56:28;18.00;99.90
60868;DHT22;46702;48.370;10.794;2022-08-19T10:59:13;18.10;99.90
60868;DHT22;46702;48.370;10.794;2022-08-19T11:01:40;18.10;99.90
60868;DHT22;46702;48.370;10.794;2022-08-19T11:04:06;18.10;99.90
60868;DHT22;46702;48.370;10.794;2022-08-19T11:06:36;18.20;99.90
60868;DHT22;46702;48.370;10.794;2022-08-19T11:09:03;18.10;99.90
60868;DHT22;46702;48.370;10.794;2022-08-19T11:11:30;18.20;99.90
60868;DHT22;46702;48.370;10.794;2022-08-19T11:13:56;18.20;99.90
60868;DHT22;46702;48.370;10.794;2022-08-19T11:16:24;18.20;99.90
60868;DHT22;46702;48.370;10.794;2022-08-19T11:18:53;18.10;99.90
60868;DHT22;46702;48.370;10.794;2022-08-19T11:21:25;18.00;99.90
60868;DHT22;46702;48.370;10.794;2022-08-19T11:23:55;18.00;99.90
60868;DHT22;46702;48.370;10.794;2022-08-19T11:26:23;18.00;99.90
60868;DHT22;46702;48.370;10.794;2022-08-19T11:28:49;18.00;99.90
60868;DHT22;46702;48.370;10.794;2022-08-19T11:31:22;18.00;99.90
60868;DHT22;46702;48.370;10.794;2022-08-19T11:33:48;18.10;99.90
60868;DHT22;46702;48.370;10.794;2022-08-19T11:36:20;18.10;99.90
60868;DHT22;46702;48.370;10.794;2022-08-19T11:38:49;18.10;99.90
60868;DHT22;46702;48.370;10.794;2022-08-19T11:41:17;18.10;99.90
60868;DHT22;46702;48.370;10.794;2022-08-19T11:43:44;18.10;99.90
60868;DHT22;46702;48.370;10.794;2022-08-19T11:46:13;18.10;99.90
60868;DHT22;46702;48.370;10.794;2022-08-19T11:48:40;18.10;99.90
60868;DHT22;46702;48.370;10.794;2022-08-19T11:51:10;18.20;99.90
60868;DHT22;46702;48.370;10.794;2022-08-19T11:53:38;18.20;99.90
60868;DHT22;46702;48.370;10.794;2022-08-19T11:56:04;18.20;99.90
60868;DHT22;46702;48.370;10.794;2022-08-19T11:58:32;18.10;99.90
60868;DHT22;46702;48.370;10.794;2022-08-19T12:00:59;18.10;99.90
60868;DHT22;46702;48.370;10.794;2022-08-19T12:03:26;18.20;99.90
60868;DHT22;46702;48.370;10.794;2022-08-19T12:05:52;18.20;99.90
60868;DHT22;46702;48.370;10.794;2022-08-19T12:08:19;18.10;99.90
60868;DHT22;46702;48.370;10.794;2022-08-19T12:10:45;18.00;99.90
60868;DHT22;46702;48.370;10.794;2022-08-19T12:13:12;18.00;99.90
60868;DHT22;46702;48.370;10.794;2022-08-19T12:15:41;18.00;99.90
60868;DHT22;46702;48.370;10.794;2022-08-19T12:18:08;18.10;99.90
60868;DHT22;46702;48.370;10.794;2022-08-19T12:20:37;18.10;99.90
60868;DHT22;46702;48.370;10.794;2022-08-19T12:23:04;18.10;99.90
60868;DHT22;46702;48.370;10.794;2022-08-19T12:25:30;17.90;99.90
60868;DHT22;46702;48.370;10.794;2022-08-19T12:27:56;17.90;99.90
60868;DHT22;46702;48.370;10.794;2022-08-19T12:30:22;17.80;99.90
60868;DHT22;46702;48.370;10.794;2022-08-19T12:32:47;17.80;99.90
60868;DHT22;46702;48.370;10.794;2022-08-19T12:35:13;17.80;99.90
60868;DHT22;46702;48.370;10.794;2022-08-19T12:37:40;17.70;99.90
60868;DHT22;46702;48.370;10.794;2022-08-19T12:40:08;17.80;99.90
60868;DHT22;46702;48.370;10.794;2022-08-19T12:42:34;17.70;99.90
60868;DHT22;46702;48.370;10.794;2022-08-19T12:45:00;17.80;99.90
60868;DHT22;46702;48.370;10.794;2022-08-19T12:47:26;17.80;99.90
60868;DHT22;46702;48.370;10.794;2022-08-19T12:49:52;17.80;99.90
60868;DHT22;46702;48.370;10.794;2022-08-19T12:52:18;17.90;99.90
60868;DHT22;46702;48.370;10.794;2022-08-19T12:54:47;17.90;99.90
60868;DHT22;46702;48.370;10.794;2022-08-19T12:57:13;17.90;99.90
60868;DHT22;46702;48.370;10.794;2022-08-19T12:59:39;17.90;99.90
60868;DHT22;46702;48.370;10.794;2022-08-19T13:02:06;17.90;99.90
60868;DHT22;46702;48.370;10.794;2022-08-19T13:04:33;17.90;99.90
60868;DHT22;46702;48.370;10.794;2022-08-19T13:07:06;17.90;99.90
60868;DHT22;46702;48.370;10.794;2022-08-19T13:09:32;18.00;99.90
60868;DHT22;46702;48.370;10.794;2022-08-19T13:11:57;18.10;99.90
60868;DHT22;46702;48.370;10.794;2022-08-19T13:14:23;18.10;99.90
60868;DHT22;46702;48.370;10.794;2022-08-19T13:16:49;18.10;99.90
60868;DHT22;46702;48.370;10.794;2022-08-19T13:19:14;18.20;99.90
60868;DHT22;46702;48.370;10.794;2022-08-19T13:21:40;18.30;99.90
60868;DHT22;46702;48.370;10.794;2022-08-19T13:24:06;18.30;99.90
60868;DHT22;46702;48.370;10.794;2022-08-19T13:26:32;18.30;99.90
60868;DHT22;46702;48.370;10.794;2022-08-19T13:28:58;18.30;99.90
60868;DHT22;46702;48.370;10.794;2022-08-19T13:31:42;18.20;99.90
60868;DHT22;46702;48.370;10.794;2022-08-19T13:34:30;18.30;99.90
60868;DHT22;46702;48.370;10.794;2022-08-19T13:36:58;18.40;99.90
60868;DHT22;46702;48.370;10.794;2022-08-19T13:39:24;18.40;99.90
60868;DHT22;46702;48.370;10.794;2022-08-19T13:41:50;18.40;99.90
60868;DHT22;46702;48.370;10.794;2022-08-19T13:44:17;18.30;99.90
60868;DHT22;46702;48.370;10.794;2022-08-19T13:46:44;18.30;99.90
60868;DHT22;46702;48.370;10.794;2022-08-19T13:49:13;18.20;99.90
60868;DHT22;46702;48.370;10.794;2022-08-19T13:51:40;18.20;99.90
60868;DHT22;46702;48.370;10.794;2022-08-19T13:54:07;18.20;99.90
60868;DHT22;46702;48.370;10.794;2022-08-19T13:56:34;18.20;99.90
60868;DHT22;46702;48.370;10.794;2022-08-19T13:59:00;18.10;99.90
60868;DHT22;46702;48.370;10.794;2022-08-19T14:01:26;18.20;99.90
60868;DHT22;46702;48.370;10.794;2022-08-19T14:03:52;18.20;99.90
60868;DHT22;46702;48.370;10.794;2022-08-19T14:06:19;18.20;99.90
60868;DHT22;46702;48.370;10.794;2022-08-19T14:08:45;18.10;99.90
60868;DHT22;46702;48.370;10.794;2022-08-19T14:11:11;18.10;99.90
60868;DHT22;46702;48.370;10.794;2022-08-19T14:13:37;18.10;99.90
60868;DHT22;46702;48.370;10.794;2022-08-19T14:16:10;18.10;99.90
60868;DHT22;46702;48.370;10.794;2022-08-19T14:18:37;18.10;99.90
60868;DHT22;46702;48.370;10.794;2022-08-19T14:21:04;18.10;99.90
60868;DHT22;46702;48.370;10.794;2022-08-19T14:23:31;18.10;99.90
60868;DHT22;46702;48.370;10.794;2022-08-19T14:26:09;18.10;99.90
60868;DHT22;46702;48.370;10.794;2022-08-19T14:28:35;18.10;99.90
60868;DHT22;46702;48.370;10.794;2022-08-19T14:31:01;18.10;99.90
60868;DHT22;46702;48.370;10.794;2022-08-19T14:33:27;18.10;99.90
60868;DHT22;46702;48.370;10.794;2022-08-19T14:35:52;18.10;99.90
60868;DHT22;46702;48.370;10.794;2022-08-19T14:38:18;18.10;99.90
60868;DHT22;46702;48.370;10.794;2022-08-19T14:40:45;18.10;99.90
60868;DHT22;46702;48.370;10.794;2022-08-19T14:43:11;18.10;99.90
60868;DHT22;46702;48.370;10.794;2022-08-19T14:45:38;18.10;99.90
60868;DHT22;46702;48.370;10.794;2022-08-19T14:48:06;18.10;99.90
60868;DHT22;46702;48.370;10.794;2022-08-19T14:50:33;18.10;99.90
60868;DHT22;46702;48.370;10.794;2022-08-19T14:53:02;18.20;99.90
60868;DHT22;46702;48.370;10.794;2022-08-19T14:55:29;18.10;99.90
60868;DHT22;46702;48.370;10.794;2022-08-19T14:57:55;18.10;99.90
60868;DHT22;46702;48.370;10.794;2022-08-19T15:00:21;18.20;99.90
60868;DHT22;46702;48.370;10.794;2022-08-19T15:02:48;18.20;99.90
60868;DHT22;46702;48.370;10.794;2022-08-19T15:05:14;18.20;99.90
60868;DHT22;46702;48.370;10.794;2022-08-19T15:07:41;18.20;99.90
60868;DHT22;46702;48.370;10.794;2022-08-19T15:10:07;18.10;99.90
60868;DHT22;46702;48.370;10.794;2022-08-19T15:12:35;18.10;99.90
60868;DHT22;46702;48.370;10.794;2022-08-19T15:15:02;18.20;99.90
60868;DHT22;46702;48.370;10.794;2022-08-19T15:17:28;18.20;99.90
60868;DHT22;46702;48.370;10.794;2022-08-19T15:19:56;18.10;99.90
60868;DHT22;46702;48.370;10.794;2022-08-19T15:22:24;18.10;99.90
60868;DHT22;46702;48.370;10.794;2022-08-19T15:24:50;18.20;99.90
60868;DHT22;46702;48.370;10.794;2022-08-19T15:27:17;18.20;99.90
60868;DHT22;46702;48.370;10.794;2022-08-19T15:29:43;18.20;99.90
60868;DHT22;46702;48.370;10.794;2022-08-19T15:32:10;18.20;99.90